createdAt,value
2023-04-13T03:28:01.142Z,0.1
2023-04-13T03:30:03.110Z,0.2
2023-04-13T03:33:06.159Z,0.4
2023-04-13T03:34:01.279Z,0.5
2023-04-13T03:36:07.356Z,0.7
2023-04-13T03:37:01.128Z,0.8
2023-04-13T03:38:01.090Z,1.0
2023-04-13T03:39:01.093Z,1.2
2023-04-13T03:41:01.299Z,1.7
2023-04-13T03:42:01.142Z,1.9
2023-04-13T03:43:01.105Z,2.3
2023-04-13T03:44:01.122Z,2.6
2023-04-13T03:45:01.663Z,2.9
2023-04-13T03:46:01.312Z,3.5
2023-04-13T03:47:01.128Z,4.0
2023-04-13T03:48:01.125Z,4.9
2023-04-13T03:49:01.099Z,5.7
2023-04-13T03:50:02.058Z,6.6
2023-04-13T03:51:01.455Z,7.9
2023-04-13T03:52:01.119Z,9.1
2023-04-13T03:53:01.367Z,11.1
2023-04-13T03:54:01.346Z,13.0
2023-04-13T03:55:01.130Z,14.9
2023-04-13T03:56:01.993Z,17.8
2023-04-13T03:57:01.146Z,20.7
2023-04-13T03:58:01.096Z,25.0
2023-04-13T03:59:01.124Z,29.3
2023-04-13T04:01:01.691Z,40.1
2023-04-13T04:02:01.107Z,46.6
2023-04-13T04:03:01.194Z,56.1
2023-04-13T04:04:01.298Z,65.7
2023-04-13T04:05:02.636Z,75.2
2023-04-13T04:06:02.474Z,89.3
2023-04-13T04:07:01.387Z,103.3
2023-04-13T04:08:01.105Z,123.6
2023-04-13T04:09:01.121Z,143.9
2023-04-13T04:10:01.114Z,164.1
2023-04-13T04:11:01.548Z,192.7
2023-04-13T04:12:01.416Z,221.2
2023-04-13T04:13:01.103Z,260.3
2023-04-13T04:14:01.428Z,299.3
2023-04-13T04:15:02.376Z,338.4
2023-04-13T04:16:01.634Z,390.8
2023-04-13T04:17:01.137Z,443.2
2023-04-13T04:18:01.145Z,511.9
2023-04-13T04:19:01.114Z,580.7
2023-04-13T04:20:01.130Z,649.4
2023-04-13T04:21:01.313Z,736.8
2023-04-13T04:22:01.391Z,824.2
2023-04-13T04:23:01.107Z,932.4
2023-04-13T04:24:01.109Z,1040.6
2023-04-13T04:25:01.701Z,1148.8
2023-04-13T04:26:06.641Z,1279.3
2023-04-13T04:27:01.523Z,1409.7
2023-04-13T04:28:01.108Z,1565.6
2023-04-13T04:29:01.393Z,1721.5
2023-04-13T04:31:01.319Z,2061.0
2023-04-13T04:32:01.198Z,2244.7
2023-04-13T04:33:01.128Z,2454.7
2023-04-13T04:34:01.218Z,2664.8
2023-04-13T04:35:01.376Z,2874.9
2023-04-13T04:36:16.136Z,3110.0
2023-04-13T04:37:03.328Z,3345.1
2023-04-13T04:38:01.112Z,3605.3
2023-04-13T04:39:01.127Z,3865.4
2023-04-13T05:05:03.170Z,18690.0
2023-04-13T05:06:00.539Z,19476.5
2023-04-13T05:07:00.548Z,19738.7
2023-04-13T05:08:00.623Z,21056.0
2023-04-13T05:09:00.682Z,21846.4
2023-04-13T05:10:01.592Z,22373.3
2023-04-13T05:11:00.559Z,22219.1
2023-04-13T05:12:00.567Z,22103.5
2023-04-13T05:13:00.588Z,22905.1
2023-04-13T05:14:00.836Z,23546.4
2023-04-13T05:15:02.747Z,24071.1
2023-04-13T05:16:00.596Z,24679.3
2023-04-13T05:17:00.812Z,25193.8
2023-04-13T05:18:00.609Z,25715.3
2023-04-13T05:19:00.987Z,26167.2
2023-04-13T05:20:01.838Z,27087.5
2023-04-13T05:21:00.577Z,27972.4
2023-04-13T05:22:00.553Z,28857.3
2023-04-13T05:23:00.660Z,28942.5
2023-04-13T05:24:00.571Z,29027.6
2023-04-13T05:25:22.377Z,29200.2
2023-04-13T05:26:00.547Z,29620.4
2023-04-13T05:27:00.549Z,30040.6
2023-04-13T05:28:00.682Z,29834.8
2023-04-13T05:29:00.780Z,29629.0
2023-04-13T05:30:01.646Z,29423.2
2023-04-13T05:31:00.556Z,29310.5
2023-04-13T05:32:00.649Z,29197.9
2023-04-13T05:33:00.631Z,28988.0
2023-04-13T05:34:00.581Z,28778.1
2023-04-13T05:35:01.912Z,28568.3
2023-04-13T05:36:00.549Z,28306.1
2023-04-13T05:37:00.577Z,28043.9
2023-04-13T05:38:00.590Z,28314.8
2023-04-13T05:39:00.705Z,28585.7
2023-04-13T05:40:01.824Z,28769.2
2023-04-13T05:41:00.614Z,29443.4
2023-04-13T05:42:00.553Z,30117.6
2023-04-13T05:43:00.850Z,30830.5
2023-04-13T05:44:00.558Z,31543.5
2023-04-13T05:45:01.851Z,32256.4
2023-04-13T05:47:00.565Z,33559.3
2023-04-13T05:48:00.660Z,34424.7
2023-04-13T05:49:00.753Z,35290.0
2023-04-13T05:50:01.795Z,36155.3
2023-04-13T05:51:00.566Z,36773.7
2023-04-13T05:52:00.561Z,37392.1
2023-04-13T05:53:00.616Z,37881.3
2023-04-13T05:54:00.573Z,38370.4
2023-04-13T05:57:00.819Z,38672.2
2023-04-13T05:58:00.589Z,38736.3
2023-04-13T05:59:00.712Z,38800.3
2023-04-13T06:00:03.824Z,38864.4
2023-04-13T06:01:00.555Z,38771.7
2023-04-13T06:02:00.592Z,38678.9
2023-04-13T06:03:00.765Z,38558.9
2023-04-13T06:04:00.797Z,38438.9
2023-04-13T06:07:00.554Z,38922.3
2023-04-13T06:08:00.583Z,39718.3
2023-04-13T06:09:01.247Z,40514.3
2023-04-13T06:10:01.645Z,41310.3
2023-04-13T06:12:00.600Z,43188.0
2023-04-13T06:13:00.586Z,44472.6
2023-04-13T06:14:00.569Z,45757.2
2023-04-13T06:17:00.616Z,49883.1
2023-04-13T06:18:00.614Z,51009.3
2023-04-13T06:45:01.649Z,65535.0
2023-04-13T07:55:01.939Z,65535.0
2023-04-13T09:15:02.034Z,65535.0
2023-04-13T09:30:17.343Z,65535.0
2023-04-13T09:55:47.727Z,65535.0
2023-04-13T10:00:03.916Z,65535.0
2023-04-13T10:30:02.786Z,65535.0
2023-04-13T12:15:15.767Z,65535.0
2023-04-13T12:24:01.562Z,65044.1
2023-04-13T12:27:17.599Z,62160.6
2023-04-13T12:28:00.782Z,60964.3
2023-04-13T12:29:00.916Z,60448.9
2023-04-13T12:30:27.030Z,59933.6
2023-04-13T13:19:00.574Z,65509.7
2023-04-13T13:22:00.561Z,61487.0
2023-04-13T13:23:00.543Z,59488.3
2023-04-13T13:24:00.641Z,56689.1
2023-04-13T13:25:01.055Z,53889.9
2023-04-13T13:26:21.329Z,51219.9
2023-04-13T13:27:19.491Z,48549.9
2023-04-13T13:29:00.996Z,44179.2
2023-04-13T16:08:00.250Z,53940.8
2023-04-13T16:09:00.368Z,51651.6
2023-04-13T16:10:01.400Z,50125.5
2023-04-13T16:12:00.249Z,47935.6
2023-04-13T16:13:00.251Z,47205.7
2023-04-13T16:14:00.296Z,46318.9
2023-04-13T16:15:01.091Z,45593.4
2023-04-13T16:17:00.290Z,46082.8
2023-04-13T16:18:00.343Z,46275.1
2023-04-13T16:19:00.351Z,47189.3
2023-04-13T16:22:00.249Z,47546.5
2023-04-13T16:23:00.250Z,47909.9
2023-04-13T16:24:00.252Z,47586.1
2023-04-13T16:25:00.482Z,47262.2
2023-04-13T16:26:00.276Z,46704.6
2023-04-13T16:27:00.255Z,46147.0
2023-04-13T16:28:00.246Z,45589.4
2023-04-13T16:29:00.373Z,45858.7
2023-04-13T16:30:02.178Z,46127.9
2023-04-13T16:32:00.247Z,46135.8
2023-04-13T16:33:00.299Z,46139.7
2023-04-13T16:34:00.263Z,44765.1
2023-04-13T16:37:00.279Z,40757.1
2023-04-13T16:38:00.250Z,39440.3
2023-04-13T16:39:00.440Z,40206.1
2023-04-13T16:42:00.250Z,43630.2
2023-04-13T16:43:00.253Z,44959.4
2023-04-13T16:44:00.252Z,46013.6
2023-04-13T16:46:00.317Z,47486.7
2023-04-13T16:47:00.323Z,47905.7
2023-04-13T16:48:00.317Z,48324.6
2023-04-13T16:49:00.404Z,49806.5
2023-04-13T16:52:00.250Z,51591.7
2023-04-13T16:53:00.283Z,51743.3
2023-04-13T16:54:00.246Z,51029.0
2023-04-13T16:55:00.517Z,50314.7
2023-04-13T16:56:00.252Z,49608.7
2023-04-13T16:57:00.246Z,48902.6
2023-04-13T16:58:00.289Z,48196.5
2023-04-13T16:59:00.477Z,47175.0
2023-04-13T17:02:00.310Z,43041.2
2023-04-13T17:03:00.456Z,41485.1
2023-04-13T17:04:00.314Z,39650.3
2023-04-13T17:05:00.956Z,37815.6
2023-04-13T17:06:00.258Z,37130.1
2023-04-13T17:07:00.252Z,36444.7
2023-04-13T17:08:00.250Z,35759.2
2023-04-13T17:09:00.474Z,34569.7
2023-04-13T17:12:00.255Z,31908.3
2023-04-13T17:13:00.250Z,31172.3
2023-04-13T17:14:00.253Z,31017.9
2023-04-13T17:17:00.255Z,31867.1
2023-04-13T17:18:00.304Z,32368.8
2023-04-13T17:19:00.397Z,32058.1
2023-04-13T17:22:00.262Z,31856.3
2023-04-13T17:23:00.260Z,31910.7
2023-04-13T17:24:00.307Z,32321.6
2023-04-13T17:25:25.477Z,32732.5
2023-04-13T17:26:00.275Z,32361.1
2023-04-13T17:27:00.253Z,31989.6
2023-04-13T17:28:00.254Z,31618.1
2023-04-13T17:29:00.511Z,30413.2
2023-04-13T17:32:00.277Z,26770.1
2023-04-13T17:33:00.330Z,25551.1
2023-04-13T17:34:00.261Z,24886.9
2023-04-13T17:35:01.156Z,24222.7
2023-04-13T17:37:00.302Z,22621.3
2023-04-13T17:38:00.256Z,21820.7
2023-04-13T17:39:00.419Z,21037.9
2023-04-13T17:40:00.486Z,20255.1
2023-04-13T17:41:00.280Z,19498.0
2023-04-13T17:42:00.253Z,18740.9
2023-04-13T17:43:00.260Z,17983.9
2023-04-13T17:44:00.255Z,17342.7
2023-04-13T17:47:00.264Z,15535.1
2023-04-13T17:48:00.284Z,14951.8
2023-04-13T17:49:00.491Z,14450.3
2023-04-13T17:50:01.153Z,13948.9
2023-04-13T17:52:01.302Z,13256.9
2023-04-13T17:53:00.276Z,12910.9
2023-04-13T17:54:00.259Z,12597.3
2023-04-13T17:57:00.358Z,11549.8
2023-04-13T17:58:00.342Z,11182.9
2023-04-13T17:59:00.456Z,10855.7
2023-04-13T18:02:00.324Z,9881.1
2023-04-13T18:03:01.721Z,9557.4
2023-04-13T18:04:00.341Z,9218.4
2023-04-13T18:06:01.456Z,8516.3
2023-04-13T18:07:00.267Z,8153.3
2023-04-13T18:08:00.269Z,7790.2
